Time;durP1;ratioP1;P1;durP2;ratioP2;P2;SDS_P1;SDS_P2;PMS_P1;PMS_P2;Temp;Humidity;BMP_temperature;BMP_pressure;BME280_temperature;BME280_humidity;BME280_pressure;Samples;Min_cycle;Max_cycle;Signal;HPM_P1;HPM_P2
2021/11/01 00:00:18;;;;;;;8.50;1.80;;;10.70;99.90;;;;;;5068601;28;20154;-42
2021/11/01 00:02:45;;;;;;;9.10;2.63;;;10.70;99.90;;;;;;5056581;28;20365;-42
2021/11/01 00:05:11;;;;;;;12.27;2.42;;;10.70;99.90;;;;;;5068982;28;20063;-42
2021/11/01 00:07:37;;;;;;;8.07;2.13;;;10.70;99.90;;;;;;5055209;28;20029;-43
2021/11/01 00:10:06;;;;;;;5.68;1.90;;;10.70;99.90;;;;;;5069071;28;20017;-31
2021/11/01 00:12:32;;;;;;;9.77;2.45;;;10.70;99.90;;;;;;5056438;28;20029;-32
2021/11/01 00:14:58;;;;;;;6.25;2.05;;;10.60;99.90;;;;;;5067885;28;20328;-33
2021/11/01 00:17:25;;;;;;;13.60;2.53;;;10.60;99.90;;;;;;5059853;28;20040;-33
2021/11/01 00:19:51;;;;;;;9.95;2.42;;;10.60;99.90;;;;;;5065550;28;20059;-33
2021/11/01 00:22:17;;;;;;;10.07;2.22;;;10.60;99.90;;;;;;5061295;28;20116;-32
2021/11/01 00:24:43;;;;;;;8.35;1.90;;;10.60;99.90;;;;;;5062650;28;20446;-33
2021/11/01 00:27:08;;;;;;;8.27;2.22;;;10.60;99.90;;;;;;5064280;28;20584;-32
2021/11/01 00:29:34;;;;;;;12.55;2.25;;;10.60;99.90;;;;;;5059988;28;20508;-43
2021/11/01 00:32:00;;;;;;;8.45;1.75;;;10.50;99.90;;;;;;5061500;28;20029;-33
2021/11/01 00:34:35;;;;;;;6.00;1.70;;;10.50;99.90;;;;;;5058912;28;20021;-32
2021/11/01 00:37:00;;;;;;;8.18;2.33;;;10.50;99.90;;;;;;5049617;28;20451;-32
2021/11/01 00:39:26;;;;;;;8.38;2.08;;;10.50;99.90;;;;;;5059339;28;20021;-33
2021/11/01 00:41:52;;;;;;;15.15;2.78;;;10.50;99.90;;;;;;5047565;28;20029;-32
2021/11/01 00:44:17;;;;;;;8.75;3.15;;;10.50;99.90;;;;;;5056311;28;20031;-33
2021/11/01 00:46:43;;;;;;;8.85;2.40;;;10.40;99.90;;;;;;5047943;28;20116;-32
2021/11/01 00:49:09;;;;;;;9.35;2.40;;;10.40;99.90;;;;;;5059206;28;20024;-33
2021/11/01 00:51:38;;;;;;;5.65;1.85;;;10.40;99.90;;;;;;5048480;28;20087;-32
2021/11/01 00:54:04;;;;;;;9.48;2.65;;;10.40;99.90;;;;;;5060941;28;20016;-34
2021/11/01 00:56:30;;;;;;;11.50;3.03;;;10.40;99.90;;;;;;5047501;28;20128;-33
2021/11/01 00:58:55;;;;;;;11.20;3.70;;;10.40;99.90;;;;;;5049745;28;20726;-32
2021/11/01 01:01:22;;;;;;;6.22;1.83;;;10.30;99.90;;;;;;5066622;28;20032;-33
2021/11/01 01:03:49;;;;;;;12.85;2.88;;;10.30;99.90;;;;;;5063352;28;20035;-31
2021/11/01 01:06:16;;;;;;;9.13;2.25;;;10.30;99.90;;;;;;5052728;28;20108;-33
2021/11/01 01:08:41;;;;;;;6.43;1.98;;;10.30;99.90;;;;;;5052954;28;20803;-33
2021/11/01 01:11:08;;;;;;;7.82;2.60;;;10.30;99.90;;;;;;5054512;28;20056;-32
2021/11/01 01:13:37;;;;;;;9.50;2.25;;;10.30;99.90;;;;;;5050379;28;20028;-33
2021/11/01 01:18:39;;;;;;;9.32;2.17;;;10.20;99.90;;;;;;5052200;28;20135;-32
2021/11/01 01:22:13;;;;;;;9.90;2.08;;;10.20;99.90;;;;;;5057697;28;20025;-32
2021/11/01 01:23:57;;;;;;;7.13;2.50;;;10.20;99.90;;;;;;5062937;28;20068;-32
2021/11/01 01:26:23;;;;;;;7.50;1.98;;;10.20;99.90;;;;;;5058678;28;20060;-32
2021/11/01 01:28:50;;;;;;;11.38;3.05;;;10.20;99.90;;;;;;5065599;28;20023;-32
2021/11/01 01:31:15;;;;;;;7.32;2.35;;;10.10;99.90;;;;;;5053268;28;20028;-32
2021/11/01 01:33:41;;;;;;;5.22;1.67;;;10.10;99.90;;;;;;5047446;28;20029;-32
2021/11/01 01:36:07;;;;;;;8.90;2.10;;;10.10;99.90;;;;;;5056173;28;20020;-32
2021/11/01 01:38:33;;;;;;;11.38;2.30;;;10.10;99.90;;;;;;5066241;28;20052;-32
2021/11/01 01:41:17;;;;;;;7.05;1.70;;;10.10;99.90;;;;;;5059149;28;20074;-32
2021/11/01 01:43:49;;;;;;;7.05;2.20;;;10.10;99.90;;;;;;5046543;28;20036;-31
2021/11/01 01:46:15;;;;;;;8.38;1.90;;;10.10;99.90;;;;;;5053920;28;20024;-33
2021/11/01 01:48:41;;;;;;;12.52;2.60;;;10.00;99.90;;;;;;5066230;28;20814;-33
2021/11/01 01:51:09;;;;;;;6.25;1.75;;;10.00;99.90;;;;;;5054547;28;20115;-32
2021/11/01 01:53:35;;;;;;;8.43;2.03;;;10.00;99.90;;;;;;5065746;28;20016;-32
2021/11/01 01:56:01;;;;;;;8.48;1.95;;;10.00;99.90;;;;;;5055426;28;20045;-32
2021/11/01 01:58:29;;;;;;;8.48;2.10;;;10.00;99.90;;;;;;5066837;28;20025;-33
2021/11/01 02:01:08;;;;;;;9.80;2.50;;;10.00;99.90;;;;;;5055077;28;20045;-32
2021/11/01 02:03:33;;;;;;;6.28;1.65;;;9.90;99.90;;;;;;5066116;28;20035;-32
2021/11/01 02:06:12;;;;;;;5.63;1.50;;;9.90;99.90;;;;;;5061159;28;20028;-32
2021/11/01 02:09:01;;;;;;;9.25;3.15;;;9.90;99.90;;;;;;5048717;28;20068;-32
2021/11/01 02:11:57;;;;;;;5.47;1.88;;;9.90;99.90;;;;;;5058003;28;20035;-42
2021/11/01 02:14:37;;;;;;;4.45;1.52;;;9.90;99.90;;;;;;5025735;28;20156;-43
2021/11/01 02:17:09;;;;;;;5.35;1.70;;;9.90;99.90;;;;;;5057846;28;20021;-43
2021/11/01 02:19:45;;;;;;;7.75;1.48;;;9.90;99.90;;;;;;5045890;28;20437;-43
2021/11/01 02:22:15;;;;;;;6.10;1.60;;;9.80;99.90;;;;;;5059534;28;20040;-44
2021/11/01 02:24:53;;;;;;;5.80;1.75;;;9.80;99.90;;;;;;5046298;28;20021;-44
2021/11/01 02:27:19;;;;;;;7.70;1.50;;;9.80;99.90;;;;;;5058312;28;20127;-43
2021/11/01 02:29:46;;;;;;;6.80;1.73;;;9.80;99.90;;;;;;5045617;28;20044;-43
2021/11/01 02:32:13;;;;;;;8.52;1.92;;;9.80;99.90;;;;;;5048157;28;20128;-42
2021/11/01 02:34:43;;;;;;;7.63;2.17;;;9.80;99.90;;;;;;5045136;28;20017;-43
2021/11/01 02:37:10;;;;;;;8.20;1.95;;;9.80;99.90;;;;;;5056298;28;20025;-44
2021/11/01 02:39:49;;;;;;;7.38;1.58;;;9.80;99.90;;;;;;5048772;28;20071;-44
2021/11/01 02:42:16;;;;;;;8.88;1.80;;;9.80;99.90;;;;;;5054952;28;20025;-43
2021/11/01 02:44:57;;;;;;;7.45;1.73;;;9.80;99.90;;;;;;5048792;28;20029;-42
2021/11/01 02:47:24;;;;;;;8.13;1.92;;;9.80;99.90;;;;;;5054962;28;20040;-43
2021/11/01 02:49:50;;;;;;;5.60;1.50;;;9.80;99.90;;;;;;5048930;28;20485;-43
2021/11/01 02:52:16;;;;;;;7.43;1.75;;;9.80;99.90;;;;;;5052911;28;20658;-43
2021/11/01 02:54:42;;;;;;;7.43;1.88;;;9.80;99.90;;;;;;5051786;28;20021;-43
2021/11/01 02:57:13;;;;;;;4.93;1.33;;;9.80;99.90;;;;;;5051460;28;20054;-43
2021/11/01 02:59:39;;;;;;;5.30;1.38;;;9.80;99.90;;;;;;5057601;28;20456;-43
2021/11/01 03:02:05;;;;;;;5.63;1.52;;;9.80;99.90;;;;;;5063580;28;20035;-42
2021/11/01 03:04:31;;;;;;;8.23;1.55;;;9.80;99.90;;;;;;5055759;28;20455;-42
2021/11/01 03:06:58;;;;;;;4.55;1.70;;;9.80;99.90;;;;;;5068138;28;20128;-42
2021/11/01 03:09:28;;;;;;;8.30;1.67;;;9.80;99.90;;;;;;5058108;28;20071;-43
2021/11/01 03:11:56;;;;;;;8.70;1.98;;;9.80;99.90;;;;;;5068117;28;20106;-43
2021/11/01 03:14:27;;;;;;;4.35;1.73;;;9.80;99.90;;;;;;5059055;28;20024;-43
2021/11/01 03:16:56;;;;;;;5.07;1.80;;;9.70;99.90;;;;;;5068592;28;20032;-43
2021/11/01 03:19:24;;;;;;;5.68;1.73;;;9.70;99.90;;;;;;5057787;28;20028;-43
2021/11/01 03:21:50;;;;;;;4.90;1.42;;;9.70;99.90;;;;;;5069692;28;20036;-43
2021/11/01 03:24:17;;;;;;;9.30;2.17;;;9.70;99.90;;;;;;5056574;28;20032;-43
2021/11/01 03:26:44;;;;;;;4.85;1.60;;;9.70;99.90;;;;;;5069258;28;20153;-43
2021/11/01 03:29:11;;;;;;;5.57;1.85;;;9.70;99.90;;;;;;5057394;28;20036;-43
2021/11/01 03:31:39;;;;;;;7.20;1.60;;;9.70;99.90;;;;;;5034236;28;20063;-43
2021/11/01 03:34:07;;;;;;;6.38;1.48;;;9.70;99.90;;;;;;5053213;28;20044;-44
2021/11/01 03:36:36;;;;;;;4.82;1.50;;;9.70;99.90;;;;;;5066953;28;20035;-43
2021/11/01 03:39:07;;;;;;;7.00;1.90;;;9.60;99.90;;;;;;5060391;28;20115;-43
2021/11/01 03:41:33;;;;;;;8.70;1.58;;;9.60;99.90;;;;;;5066122;28;20078;-42
2021/11/01 03:44:07;;;;;;;9.80;1.98;;;9.60;99.90;;;;;;5062492;28;20021;-42
2021/11/01 03:46:42;;;;;;;7.90;1.50;;;9.60;99.90;;;;;;5064612;28;20035;-45
2021/11/01 03:49:09;;;;;;;6.55;1.65;;;9.60;99.90;;;;;;5062795;28;20115;-43
2021/11/01 03:54:10;;;;;;;8.27;1.50;;;9.60;99.90;;;;;;5064311;28;20685;-43
2021/11/01 03:56:41;;;;;;;6.70;1.58;;;9.60;99.90;;;;;;5061320;28;20119;-43
2021/11/01 03:59:08;;;;;;;6.95;1.88;;;9.50;99.90;;;;;;5065090;28;20095;-43
2021/11/01 04:01:43;;;;;;;5.97;1.70;;;9.50;99.90;;;;;;5059985;28;20543;-43
2021/11/01 04:04:09;;;;;;;4.47;1.80;;;9.50;99.90;;;;;;5066570;28;20505;-43
2021/11/01 04:06:36;;;;;;;9.52;1.73;;;9.50;99.90;;;;;;5057741;28;20028;-42
2021/11/01 04:09:03;;;;;;;6.75;1.58;;;9.50;99.90;;;;;;5067552;28;20028;-43
2021/11/01 04:11:29;;;;;;;8.70;2.03;;;9.50;99.90;;;;;;5057463;28;20025;-43
2021/11/01 04:14:01;;;;;;;5.78;2.08;;;9.60;99.90;;;;;;5066768;28;20039;-43
2021/11/01 04:16:38;;;;;;;5.22;1.70;;;9.50;99.90;;;;;;5056853;28;20028;-42
2021/11/01 04:21:38;;;;;;;5.50;1.58;;;9.50;99.90;;;;;;5055874;28;20057;-42
2021/11/01 04:24:05;;;;;;;5.93;1.42;;;9.50;99.90;;;;;;5048643;28;20103;-42
2021/11/01 04:26:30;;;;;;;4.35;1.20;;;9.50;99.90;;;;;;5059514;28;20549;-42
2021/11/01 04:29:02;;;;;;;6.30;1.92;;;9.50;99.90;;;;;;5048571;28;20037;-43
2021/11/01 04:31:33;;;;;;;5.22;1.50;;;9.60;99.90;;;;;;5060078;28;20678;-42
2021/11/01 04:34:04;;;;;;;4.93;1.60;;;9.60;99.90;;;;;;5067976;28;20033;-43
2021/11/01 04:36:30;;;;;;;10.68;2.10;;;9.70;99.90;;;;;;5055362;28;20056;-43
2021/11/01 04:39:06;;;;;;;6.65;2.00;;;9.70;99.90;;;;;;5068200;28;20075;-43
2021/11/01 04:41:58;;;;;;;9.43;2.35;;;9.70;99.90;;;;;;5055758;28;20079;-42
2021/11/01 04:55:07;;;;;;;6.93;1.92;;;9.60;99.90;;;;;;5047238;28;20055;-42
2021/11/01 04:57:33;;;;;;;9.20;2.20;;;9.60;99.90;;;;;;5059509;28;20859;-43
2021/11/01 04:59:58;;;;;;;6.40;1.50;;;9.60;99.90;;;;;;5048010;28;20029;-43
2021/11/01 05:02:26;;;;;;;6.72;1.90;;;9.60;99.90;;;;;;5059361;28;20033;-44
2021/11/01 05:04:52;;;;;;;10.38;1.90;;;9.60;99.90;;;;;;5047587;28;20040;-43
2021/11/01 05:07:18;;;;;;;9.32;1.80;;;9.60;99.90;;;;;;5058934;28;20102;-43
2021/11/01 05:09:56;;;;;;;6.30;1.60;;;9.50;99.90;;;;;;5048159;28;20457;-43
2021/11/01 05:12:29;;;;;;;7.35;2.00;;;9.60;99.90;;;;;;5057990;28;20051;-44
2021/11/01 05:17:56;;;;;;;6.70;2.50;;;9.60;99.90;;;;;;5058418;28;20084;-44
2021/11/01 05:20:32;;;;;;;5.22;1.70;;;9.60;99.90;;;;;;5027658;28;20030;-44
2021/11/01 05:30:45;;;;;;;6.38;1.58;;;9.50;99.90;;;;;;5046614;28;20033;-42
2021/11/01 05:35:37;;;;;;;7.35;2.00;;;9.50;99.90;;;;;;5048656;28;20028;-44
2021/11/01 05:38:03;;;;;;;10.05;2.13;;;9.50;99.90;;;;;;5054226;28;20044;-43
2021/11/01 05:40:34;;;;;;;5.13;1.77;;;9.50;99.90;;;;;;5051068;28;20024;-43
2021/11/01 05:43:00;;;;;;;5.85;1.40;;;9.50;99.90;;;;;;5053649;28;20030;-42
2021/11/01 05:45:28;;;;;;;10.63;2.20;;;9.50;99.90;;;;;;5052089;28;20017;-43
2021/11/01 05:48:12;;;;;;;7.32;1.90;;;9.50;99.90;;;;;;5051183;28;20039;-42
2021/11/01 05:50:38;;;;;;;5.82;1.60;;;9.50;99.90;;;;;;5052269;28;20029;-42
2021/11/01 05:53:07;;;;;;;6.78;2.08;;;9.50;99.90;;;;;;5051095;28;20021;-42
2021/11/01 05:55:50;;;;;;;9.93;2.47;;;9.40;99.90;;;;;;5053930;28;20179;-42
2021/11/01 05:58:35;;;;;;;8.18;2.10;;;9.40;99.90;;;;;;5051209;28;20039;-42
2021/11/01 06:01:36;;;;;;;5.13;1.83;;;9.40;99.90;;;;;;5052243;28;20021;-43
2021/11/01 06:14:40;;;;;;;7.93;2.10;;;9.40;99.90;;;;;;5049698;28;20498;-43
2021/11/01 06:17:06;;;;;;;6.05;1.55;;;9.40;99.90;;;;;;5046816;28;20029;-44
2021/11/01 06:19:32;;;;;;;5.80;1.60;;;9.40;99.90;;;;;;5054905;28;20486;-42
2021/11/01 06:21:57;;;;;;;8.07;1.58;;;9.50;99.90;;;;;;5049674;28;20052;-43
2021/11/01 06:27:12;;;;;;;8.20;1.67;;;9.50;99.90;;;;;;5048648;28;20175;-42
2021/11/01 06:33:27;;;;;;;7.47;1.50;;;9.60;99.90;;;;;;5054180;28;20036;-44
2021/11/01 06:41:02;;;;;;;6.47;1.52;;;9.90;99.90;;;;;;5054358;28;20447;-43
2021/11/01 06:43:44;;;;;;;8.93;2.22;;;9.90;99.90;;;;;;5069807;28;20099;-43
2021/11/01 06:51:52;;;;;;;12.60;1.88;;;10.00;99.90;;;;;;5060685;28;20039;-42
2021/11/01 06:54:52;;;;;;;7.50;1.60;;;10.10;99.90;;;;;;5049173;28;20064;-42
2021/11/01 07:14:09;;;;;;;9.48;2.45;;;10.20;99.90;;;;;;5049123;28;20090;-43
2021/11/01 07:16:37;;;;;;;6.90;1.60;;;10.20;99.90;;;;;;5060696;28;20550;-44
2021/11/01 07:30:25;;;;;;;6.93;1.60;;;10.20;99.90;;;;;;5029050;28;20044;-44
2021/11/01 08:17:39;;;;;;;7.82;1.55;;;10.30;99.90;;;;;;5048332;28;20043;-44
2021/11/01 08:22:52;;;;;;;6.95;1.73;;;10.90;99.90;;;;;;5049594;28;20094;-44
2021/11/01 08:25:50;;;;;;;5.20;1.92;;;11.00;99.90;;;;;;5049873;28;20151;-43
2021/11/01 08:28:32;;;;;;;7.63;2.00;;;11.00;99.90;;;;;;5063096;28;20036;-43
2021/11/01 08:42:05;;;;;;;7.53;2.20;;;11.10;99.90;;;;;;5064742;28;20029;-43
2021/11/01 09:09:51;;;;;;;6.75;2.30;;;11.60;99.90;;;;;;5067568;28;20476;-43
2021/11/01 09:27:24;;;;;;;5.88;1.98;;;11.80;99.90;;;;;;5045646;28;20125;-42
2021/11/01 09:30:26;;;;;;;7.70;1.83;;;11.80;99.90;;;;;;5064944;28;20035;-43
2021/11/01 09:38:14;;;;;;;5.88;1.58;;;11.80;99.90;;;;;;5053028;28;20067;-43
2021/11/01 09:43:25;;;;;;;5.88;1.63;;;11.90;99.90;;;;;;5051465;28;20072;-43
2021/11/01 09:45:59;;;;;;;6.10;1.50;;;12.00;99.90;;;;;;5051131;28;20492;-43
2021/11/01 09:48:26;;;;;;;3.83;1.42;;;12.10;99.90;;;;;;5051681;28;20037;-42
2021/11/01 09:50:52;;;;;;;4.18;1.33;;;12.10;99.90;;;;;;5048849;28;20112;-43
2021/11/01 09:53:26;;;;;;;5.07;1.70;;;12.10;99.90;;;;;;5056240;28;20031;-42
2021/11/01 10:01:22;;;;;;;6.75;1.48;;;12.00;99.90;;;;;;5051615;28;20039;-44
2021/11/01 10:03:50;;;;;;;3.72;1.50;;;11.90;99.90;;;;;;5054359;28;20028;-43
2021/11/01 10:06:23;;;;;;;4.38;1.80;;;11.90;99.90;;;;;;5048187;28;20025;-42
2021/11/01 10:08:53;;;;;;;;;;;11.90;99.90;;;;;;5055790;28;20029;-44
2021/11/01 10:11:22;;;;;;;4.70;1.45;;;12.00;99.90;;;;;;5046664;28;19905;-43
2021/11/01 10:14:00;;;;;;;3.08;1.20;;;12.10;99.90;;;;;;5045137;28;20019;-43
2021/11/01 10:19:48;;;;;;;4.03;1.40;;;12.30;99.90;;;;;;5029552;28;20560;-43
2021/11/01 10:22:25;;;;;;;6.13;1.73;;;12.20;99.90;;;;;;5043370;28;20040;-42
2021/11/01 10:24:56;;;;;;;3.65;1.30;;;12.20;99.90;;;;;;5060768;28;20081;-42
2021/11/01 10:27:32;;;;;;;8.70;1.90;;;12.20;99.90;;;;;;5060066;28;20025;-43
2021/11/01 10:30:03;;;;;;;3.78;1.35;;;12.20;99.90;;;;;;5049172;28;20590;-42
2021/11/01 10:32:36;;;;;;;6.95;1.80;;;12.20;99.90;;;;;;5050458;28;20024;-43
2021/11/01 10:35:30;;;;;;;5.53;1.60;;;12.20;99.90;;;;;;5051643;28;20041;-43
2021/11/01 10:40:51;;;;;;;3.92;1.10;;;12.40;99.90;;;;;;5047387;28;20481;-43
2021/11/01 10:43:42;;;;;;;6.88;1.75;;;12.50;99.90;;;;;;5054832;28;20052;-42
2021/11/01 11:11:11;;;;;;;5.78;1.20;;;12.30;99.90;;;;;;5046364;28;20495;-42
2021/11/01 11:13:44;;;;;;;4.15;1.35;;;12.30;99.90;;;;;;5062183;28;20028;-43
2021/11/01 11:16:13;;;;;;;5.97;1.10;;;12.40;99.90;;;;;;5056937;28;20472;-43
2021/11/01 11:19:00;;;;;;;3.78;1.13;;;12.50;99.90;;;;;;5063535;28;20027;-44
2021/11/01 11:21:45;;;;;;;5.80;1.20;;;12.60;99.90;;;;;;5057173;28;20032;-43
2021/11/01 11:24:35;;;;;;;2.92;0.93;;;12.60;99.90;;;;;;5050218;28;20131;-43
2021/11/01 11:27:31;;;;;;;2.88;1.00;;;12.70;99.90;;;;;;5051708;28;20059;-43
2021/11/01 11:39:20;;;;;;;4.03;1.40;;;13.00;99.90;;;;;;5026522;28;20072;-43
2021/11/01 11:42:31;;;;;;;5.05;1.80;;;13.00;99.90;;;;;;5059145;28;20108;-43
2021/11/01 11:48:14;;;;;;;4.05;1.77;;;13.20;99.90;;;;;;5051728;28;20079;-43
2021/11/01 11:50:40;;;;;;;5.43;1.75;;;13.20;99.90;;;;;;5058350;28;20017;-43
2021/11/01 11:53:26;;;;;;;4.88;1.30;;;13.20;99.90;;;;;;5051496;28;20029;-44
2021/11/01 11:56:13;;;;;;;6.78;1.40;;;13.20;99.90;;;;;;5058641;28;20095;-44
2021/11/01 11:58:41;;;;;;;4.55;1.08;;;13.20;99.90;;;;;;5028022;28;20052;-44
2021/11/01 12:01:29;;;;;;;6.20;1.50;;;13.30;99.90;;;;;;5045325;28;20045;-44
2021/11/01 12:03:56;;;;;;;7.63;1.75;;;13.40;99.90;;;;;;5046917;28;20036;-33
2021/11/01 12:06:43;;;;;;;5.85;1.60;;;13.50;99.90;;;;;;5050108;28;20610;-33
2021/11/01 12:09:18;;;;;;;4.82;1.50;;;13.50;99.90;;;;;;5047741;28;20033;-34
2021/11/01 12:12:39;;;;;;;4.60;1.75;;;13.60;99.90;;;;;;5048817;28;20636;-34
2021/11/01 12:17:21;;;;;;;6.20;2.05;;;13.70;99.90;;;;;;5052345;28;20423;-33
2021/11/01 12:19:47;;;;;;;3.42;1.67;;;13.70;99.90;;;;;;5036957;28;20841;-33
2021/11/01 12:22:25;;;;;;;5.28;1.77;;;13.70;99.90;;;;;;5048106;28;20025;-34
2021/11/01 12:24:53;;;;;;;5.13;2.42;;;13.60;99.90;;;;;;5043266;28;20087;-34
2021/11/01 12:27:19;;;;;;;6.10;2.13;;;13.60;99.90;;;;;;5057711;28;20561;-34
2021/11/01 12:29:45;;;;;;;5.18;2.10;;;13.60;99.90;;;;;;5046963;28;20116;-33
2021/11/01 12:32:13;;;;;;;4.75;1.52;;;13.60;99.90;;;;;;5048606;28;20542;-34
2021/11/01 12:35:09;;;;;;;3.10;1.50;;;13.60;99.90;;;;;;5060929;28;20029;-32
2021/11/01 12:37:49;;;;;;;3.80;1.30;;;13.60;99.90;;;;;;5050347;28;20037;-34
2021/11/01 12:40:32;;;;;;;4.45;1.17;;;13.70;99.90;;;;;;5043516;28;20036;-33
2021/11/01 12:46:16;;;;;;;4.85;1.10;;;13.70;99.90;;;;;;5044287;28;20029;-33
2021/11/01 12:59:35;;;;;;;3.60;1.33;;;13.80;99.90;;;;;;5046820;28;20489;-33
2021/11/01 13:02:01;;;;;;;6.95;1.25;;;13.80;99.90;;;;;;5046406;28;20484;-33
2021/11/01 13:04:35;;;;;;;7.55;1.77;;;13.70;99.90;;;;;;5050658;28;20029;-32
2021/11/01 13:07:14;;;;;;;3.25;1.05;;;13.70;99.90;;;;;;5047806;28;20561;-34
2021/11/01 13:09:46;;;;;;;3.83;1.10;;;13.70;99.90;;;;;;5046240;28;20024;-33
2021/11/01 13:17:48;;;;;;;3.13;1.00;;;13.80;99.90;;;;;;5046844;28;20037;-33
2021/11/01 13:18:40;;;;;;;4.25;1.33;;;13.70;99.90;;;;;;5049024;28;20212;-33
2021/11/01 13:20:56;;;;;;;2.92;1.10;;;13.60;99.90;;;;;;5042784;28;20128;-33
2021/11/01 13:23:24;;;;;;;3.75;1.15;;;13.60;99.90;;;;;;5047617;28;20939;-33
2021/11/01 13:26:03;;;;;;;2.88;1.17;;;13.60;99.90;;;;;;5045845;28;20036;-34
2021/11/01 13:37:06;;;;;;;3.75;1.45;;;13.60;99.90;;;;;;5026320;28;20037;-34
2021/11/01 13:39:32;;;;;;;5.13;1.10;;;13.60;99.90;;;;;;5054025;28;20031;-34
2021/11/01 13:41:59;;;;;;;2.30;0.93;;;13.60;99.90;;;;;;5046963;28;20664;-34
2021/11/01 13:44:26;;;;;;;3.20;1.10;;;13.60;99.90;;;;;;5056037;28;20534;-33
2021/11/01 13:47:01;;;;;;;3.50;1.13;;;13.70;99.90;;;;;;5048787;28;20040;-33
2021/11/01 13:49:31;;;;;;;4.43;1.00;;;13.70;99.90;;;;;;5047724;28;20103;-33
2021/11/01 13:57:33;;;;;;;7.20;1.92;;;13.80;99.90;;;;;;5046267;28;20029;-44
2021/11/01 14:11:20;;;;;;;2.85;0.77;;;13.90;99.90;;;;;;5055235;28;20051;-44
2021/11/01 14:57:45;;;;;;;3.90;1.33;;;13.50;99.90;;;;;;5055501;28;20075;-43
2021/11/01 15:13:34;;;;;;;3.88;1.38;;;13.30;99.90;;;;;;5057245;28;20099;-43
2021/11/01 15:24:12;;;;;;;5.18;1.08;;;13.00;99.90;;;;;;5060885;28;20037;-44
2021/11/01 15:29:37;;;;;;;3.53;1.50;;;12.90;99.90;;;;;;5059052;28;20041;-44
2021/11/01 15:34:46;;;;;;;2.85;0.88;;;12.80;99.90;;;;;;5059790;28;20459;-44
2021/11/01 16:18:15;;;;;;;3.50;0.88;;;12.70;99.90;;;;;;5045481;28;20079;-43
2021/11/01 16:20:47;;;;;;;2.90;1.00;;;12.70;99.90;;;;;;5060204;28;20844;-43
2021/11/01 16:23:34;;;;;;;2.83;1.00;;;12.60;99.90;;;;;;5047921;28;20086;-44
2021/11/01 16:26:05;;;;;;;2.45;1.10;;;12.60;99.90;;;;;;5057378;28;20037;-44
2021/11/01 16:28:33;;;;;;;3.85;1.05;;;12.50;99.90;;;;;;5048428;28;20473;-44
2021/11/01 16:34:10;;;;;;;2.45;0.90;;;12.40;99.90;;;;;;5049488;28;20079;-43
2021/11/01 16:39:27;;;;;;;5.30;1.15;;;12.30;99.90;;;;;;5066213;28;20423;-44
2021/11/01 16:41:53;;;;;;;4.88;2.00;;;12.30;99.90;;;;;;5057752;28;20067;-43
2021/11/01 16:44:26;;;;;;;3.00;1.70;;;12.30;99.90;;;;;;5066968;28;20041;-43
2021/11/01 16:46:53;;;;;;;4.82;1.58;;;12.30;99.90;;;;;;5056010;28;20021;-43
2021/11/01 16:49:20;;;;;;;4.38;1.95;;;12.30;99.90;;;;;;5066873;28;20036;-43
2021/11/01 16:51:47;;;;;;;2.95;1.10;;;12.30;99.90;;;;;;5056063;28;20443;-44
2021/11/01 16:54:16;;;;;;;2.22;1.10;;;12.30;99.90;;;;;;5050395;28;20029;-42
2021/11/01 16:59:28;;;;;;;3.92;1.50;;;12.40;99.90;;;;;;5067537;28;20239;-31
2021/11/01 17:02:07;;;;;;;3.22;1.30;;;12.30;99.90;;;;;;5055081;28;20033;-43
2021/11/01 17:04:35;;;;;;;3.55;1.17;;;12.10;99.90;;;;;;5067747;28;20361;-43
2021/11/01 17:07:11;;;;;;;3.90;1.10;;;11.90;99.90;;;;;;5054317;28;20054;-42
2021/11/01 17:10:15;;;;;;;2.22;1.00;;;11.60;99.90;;;;;;5067003;28;20029;-44
2021/11/01 17:26:26;;;;;;;8.20;3.08;;;11.10;99.90;;;;;;5063136;28;20116;-44
2021/11/01 18:38:17;;;;;;;3.35;1.30;;;11.00;99.90;;;;;;5046371;28;20044;-43
2021/11/01 18:51:33;;;;;;;2.22;1.00;;;10.80;99.90;;;;;;5047795;28;20122;-44
2021/11/01 18:54:09;;;;;;;1.45;0.93;;;10.70;99.90;;;;;;5061860;28;20036;-43
2021/11/01 18:56:37;;;;;;;1.35;0.90;;;10.70;99.90;;;;;;5057089;28;20056;-43
2021/11/01 18:59:06;;;;;;;1.27;0.80;;;10.60;99.90;;;;;;5062785;28;20036;-43
2021/11/01 19:01:34;;;;;;;1.45;1.00;;;10.50;99.90;;;;;;5055605;28;20028;-43
2021/11/01 19:04:03;;;;;;;0.80;0.80;;;10.40;99.90;;;;;;5064432;28;20032;-43
2021/11/01 19:06:40;;;;;;;1.27;1.17;;;10.40;99.90;;;;;;5053811;28;20078;-43
2021/11/01 20:10:54;;;;;;;2.20;2.00;;;9.50;99.90;;;;;;5016617;28;20030;-44
2021/11/01 20:16:31;;;;;;;2.63;2.08;;;9.50;99.90;;;;;;5067292;28;20062;-44
2021/11/01 21:26:26;;;;;;;3.42;2.55;;;8.80;99.90;;;;;;5000967;28;20145;-44
2021/11/01 21:28:52;;;;;;;3.13;2.50;;;8.80;99.90;;;;;;5036032;28;20127;-43
2021/11/01 21:31:20;;;;;;;3.63;3.00;;;8.80;99.90;;;;;;5049289;28;20048;-43
2021/11/01 21:33:47;;;;;;;3.78;3.17;;;8.80;99.90;;;;;;5043749;28;20021;-44
2021/11/01 21:36:23;;;;;;;4.72;3.42;;;8.90;99.90;;;;;;5047540;28;20804;-44
2021/11/01 21:38:50;;;;;;;6.45;3.50;;;8.80;99.90;;;;;;5044015;28;20036;-43
2021/11/01 21:41:16;;;;;;;6.05;3.97;;;8.90;99.90;;;;;;5048259;28;20051;-43
2021/11/01 21:43:41;;;;;;;6.47;3.30;;;8.80;99.90;;;;;;5044136;28;20032;-43
2021/11/01 21:46:07;;;;;;;3.92;3.15;;;8.80;99.90;;;;;;5048156;28;20020;-43
2021/11/01 21:48:36;;;;;;;4.80;3.20;;;8.80;99.90;;;;;;5044430;28;20514;-43
2021/11/01 21:51:01;;;;;;;3.22;2.92;;;8.80;99.90;;;;;;5046131;28;20052;-43
2021/11/01 21:53:29;;;;;;;3.67;3.03;;;8.80;99.90;;;;;;5046941;28;20443;-43
2021/11/01 21:55:56;;;;;;;3.60;3.08;;;8.80;99.90;;;;;;5046575;28;20114;-44
2021/11/01 21:58:37;;;;;;;3.00;2.70;;;8.80;99.90;;;;;;5045220;28;20083;-43
2021/11/01 22:01:20;;;;;;;4.07;2.90;;;8.90;99.90;;;;;;5046203;28;20239;-43
2021/11/01 22:17:51;;;;;;;4.63;2.20;;;8.70;99.90;;;;;;5024584;28;20106;-43
2021/11/01 22:20:23;;;;;;;4.70;2.70;;;8.70;99.90;;;;;;5047644;28;20021;-43
2021/11/01 22:22:57;;;;;;;2.90;2.50;;;8.70;99.90;;;;;;5047096;28;20047;-43
2021/11/01 22:25:28;;;;;;;4.15;2.47;;;8.70;99.90;;;;;;5047307;28;20055;-44
2021/11/01 22:44:39;;;;;;;3.80;2.20;;;8.60;99.90;;;;;;5042322;28;20029;-43
2021/11/01 22:47:05;;;;;;;3.13;2.35;;;8.60;99.90;;;;;;5044496;28;20036;-44
2021/11/01 22:57:43;;;;;;;3.10;2.50;;;8.50;99.90;;;;;;5052408;28;20091;-44
2021/11/01 23:00:19;;;;;;;4.07;2.78;;;8.50;99.90;;;;;;5061529;28;20750;-44
2021/11/01 23:02:48;;;;;;;5.13;2.97;;;8.40;99.90;;;;;;5058534;28;20140;-43
2021/11/01 23:05:36;;;;;;;4.95;3.28;;;8.40;99.90;;;;;;5060518;28;20027;-43
2021/11/01 23:32:37;;;;;;;4.57;2.20;;;8.20;99.90;;;;;;5056358;28;20040;-42
2021/11/01 23:35:02;;;;;;;4.85;2.30;;;8.20;99.90;;;;;;5060325;28;20033;-42
2021/11/01 23:37:28;;;;;;;4.72;2.42;;;8.20;99.90;;;;;;5048934;28;20041;-43
2021/11/01 23:39:53;;;;;;;2.92;2.38;;;8.20;99.90;;;;;;5060936;28;20079;-44
2021/11/01 23:42:19;;;;;;;3.70;2.85;;;8.20;99.90;;;;;;5049390;28;20473;-44
2021/11/01 23:44:44;;;;;;;5.22;2.65;;;8.20;99.90;;;;;;5060604;28;20031;-43
2021/11/01 23:47:10;;;;;;;4.90;2.80;;;8.20;99.90;;;;;;5049299;28;20025;-44
2021/11/01 23:49:35;;;;;;;3.50;2.58;;;8.10;99.90;;;;;;5058227;28;20044;-43
2021/11/01 23:52:08;;;;;;;4.75;2.90;;;8.10;99.90;;;;;;5052207;28;20397;-43
2021/11/01 23:54:39;;;;;;;5.53;2.75;;;8.10;99.90;;;;;;5055886;28;20457;-43
2021/11/01 23:57:06;;;;;;;5.55;2.70;;;8.10;99.90;;;;;;5053076;28;20024;-43
2021/11/01 23:59:32;;;;;;;5.07;2.55;;;8.00;99.90;;;;;;5054648;28;20434;-43
